Time;durP1;ratioP1;P1;durP2;ratioP2;P2;SDS_P1;SDS_P2;PMS_P1;PMS_P2;Temp;Humidity;BMP_temperature;BMP_pressure;BME280_temperature;BME280_humidity;BME280_pressure;Samples;Min_cycle;Max_cycle;Signal;HPM_P1;HPM_P2
2022/02/23 00:02:21;;;;;;;1.20;0.90;;;8.60;98.00;;;;;;5114631;28;20510;-67
2022/02/23 00:04:48;;;;;;;1.20;1.00;;;8.60;98.00;;;;;;5114498;28;21105;-67
2022/02/23 00:07:15;;;;;;;1.20;1.00;;;8.60;98.00;;;;;;5114615;28;20455;-67
2022/02/23 00:09:42;;;;;;;1.33;1.17;;;8.60;98.00;;;;;;5114758;28;21078;-67
2022/02/23 00:12:10;;;;;;;1.20;1.00;;;8.50;98.00;;;;;;5114583;28;20457;-67
2022/02/23 00:14:37;;;;;;;1.20;0.93;;;8.60;98.00;;;;;;5114803;28;20501;-68
2022/02/23 00:17:06;;;;;;;1.20;1.00;;;8.60;98.00;;;;;;5114761;28;20492;-67
2022/02/23 00:19:33;;;;;;;1.20;0.90;;;8.60;98.00;;;;;;5114093;28;20499;-67
2022/02/23 00:22:00;;;;;;;1.20;0.90;;;8.60;98.00;;;;;;5114175;28;20480;-67
2022/02/23 00:24:27;;;;;;;1.50;1.10;;;8.70;98.00;;;;;;5114389;28;20457;-67
2022/02/23 00:26:54;;;;;;;1.20;0.97;;;8.70;98.00;;;;;;5113928;28;20489;-67
2022/02/23 00:29:21;;;;;;;1.20;1.00;;;8.70;98.00;;;;;;5114315;28;20850;-67
2022/02/23 00:31:48;;;;;;;1.30;1.00;;;8.70;98.00;;;;;;5114003;28;20537;-67
2022/02/23 00:34:18;;;;;;;1.20;1.00;;;8.70;98.00;;;;;;5114337;28;20487;-67
2022/02/23 00:36:45;;;;;;;1.20;1.00;;;8.70;98.00;;;;;;5114056;28;20457;-67
2022/02/23 00:39:12;;;;;;;1.20;0.90;;;8.70;98.00;;;;;;5114056;28;20508;-67
2022/02/23 00:41:39;;;;;;;1.10;0.90;;;8.70;98.00;;;;;;5113037;28;20571;-67
2022/02/23 00:44:07;;;;;;;1.30;1.00;;;8.70;98.00;;;;;;5113922;28;20493;-67
2022/02/23 00:46:34;;;;;;;1.20;1.00;;;8.80;98.00;;;;;;5113681;28;20484;-67
2022/02/23 00:49:01;;;;;;;1.70;1.10;;;8.80;98.00;;;;;;5113847;28;20451;-67
2022/02/23 00:51:29;;;;;;;1.20;0.90;;;8.80;98.00;;;;;;5113732;28;20509;-67
2022/02/23 00:53:56;;;;;;;1.33;1.00;;;8.80;98.00;;;;;;5113867;28;20504;-67
2022/02/23 00:56:23;;;;;;;1.20;1.00;;;8.80;98.00;;;;;;5113542;28;20464;-67
2022/02/23 00:58:50;;;;;;;1.20;1.00;;;8.80;98.00;;;;;;5113746;28;20564;-67
2022/02/23 01:01:18;;;;;;;1.90;1.10;;;8.80;98.00;;;;;;5113773;28;20527;-67
2022/02/23 01:03:45;;;;;;;1.20;1.07;;;8.80;98.00;;;;;;5113286;28;20480;-67
2022/02/23 01:06:15;;;;;;;1.20;1.00;;;8.80;98.00;;;;;;5113593;28;20540;-67
2022/02/23 01:08:44;;;;;;;1.40;1.00;;;8.80;98.00;;;;;;5112268;28;20568;-67
2022/02/23 01:11:11;;;;;;;1.20;0.93;;;8.80;98.00;;;;;;5113314;28;20450;-67
2022/02/23 01:13:38;;;;;;;1.20;0.90;;;8.80;98.00;;;;;;5113288;28;20506;-67
2022/02/23 01:16:05;;;;;;;1.20;1.00;;;8.90;98.00;;;;;;5113123;28;20489;-67
2022/02/23 01:18:32;;;;;;;1.10;0.90;;;8.80;98.00;;;;;;5113038;28;20485;-67
2022/02/23 01:20:59;;;;;;;1.20;1.00;;;8.80;98.00;;;;;;5111926;28;20473;-67
2022/02/23 01:23:27;;;;;;;1.20;1.00;;;8.80;98.00;;;;;;5112980;28;20478;-67
2022/02/23 01:25:55;;;;;;;1.20;1.00;;;8.80;98.00;;;;;;5112954;28;20461;-67
2022/02/23 01:28:22;;;;;;;1.20;1.00;;;8.80;98.00;;;;;;5113030;28;20954;-67
2022/02/23 01:30:49;;;;;;;1.20;1.00;;;8.90;98.00;;;;;;5112879;28;20456;-67
2022/02/23 01:33:17;;;;;;;1.20;0.90;;;8.90;98.00;;;;;;5112982;28;20454;-67
2022/02/23 01:35:45;;;;;;;1.60;1.10;;;8.90;98.00;;;;;;5112091;28;20492;-67
2022/02/23 01:38:14;;;;;;;1.20;1.00;;;8.90;98.00;;;;;;5112742;28;20489;-67
2022/02/23 01:40:43;;;;;;;1.10;1.00;;;8.90;98.00;;;;;;5112893;28;20489;-67
2022/02/23 01:43:12;;;;;;;1.20;1.03;;;8.90;98.00;;;;;;5112936;28;20543;-67
2022/02/23 01:45:39;;;;;;;4.03;1.30;;;8.90;98.00;;;;;;5112823;28;20481;-67
2022/02/23 01:48:06;;;;;;;1.10;0.90;;;8.90;98.00;;;;;;5112768;28;20503;-67
2022/02/23 01:50:33;;;;;;;1.20;1.00;;;8.90;98.00;;;;;;5112946;28;20551;-67
2022/02/23 01:53:00;;;;;;;1.20;1.00;;;8.60;98.00;;;;;;5111928;28;20490;-67
2022/02/23 01:55:27;;;;;;;1.20;1.00;;;8.30;98.00;;;;;;5112829;28;20489;-67
2022/02/23 01:57:54;;;;;;;1.17;0.93;;;7.90;98.00;;;;;;5112574;28;20932;-67
2022/02/23 02:00:25;;;;;;;1.20;1.00;;;7.60;98.00;;;;;;5112728;28;20490;-67
2022/02/23 02:02:52;;;;;;;1.20;1.00;;;7.40;98.00;;;;;;5112425;28;20482;-67
2022/02/23 02:05:18;;;;;;;1.20;1.00;;;7.20;98.00;;;;;;5112349;28;20511;-67
2022/02/23 02:07:45;;;;;;;1.10;1.00;;;7.20;98.00;;;;;;5112341;28;20888;-67
2022/02/23 02:10:13;;;;;;;1.10;0.90;;;7.10;98.00;;;;;;5112150;28;20457;-67
2022/02/23 02:12:41;;;;;;;1.10;0.90;;;7.00;98.00;;;;;;5112204;28;20454;-68
2022/02/23 02:15:09;;;;;;;1.20;1.00;;;7.00;98.00;;;;;;5112055;28;20541;-68
2022/02/23 02:17:41;;;;;;;1.10;0.90;;;6.90;98.00;;;;;;5112162;28;20494;-67
2022/02/23 02:20:09;;;;;;;1.20;1.20;;;6.80;98.00;;;;;;5112224;28;20981;-67
2022/02/23 02:22:37;;;;;;;1.10;0.90;;;6.80;98.00;;;;;;5111895;28;20919;-68
2022/02/23 02:25:06;;;;;;;1.10;0.90;;;6.80;98.00;;;;;;5112166;28;20459;-67
2022/02/23 02:27:33;;;;;;;1.13;0.90;;;6.80;98.00;;;;;;5112168;28;21111;-67
2022/02/23 02:30:00;;;;;;;1.20;0.90;;;6.80;98.00;;;;;;5112282;28;20465;-68
2022/02/23 02:32:28;;;;;;;1.10;0.90;;;6.70;98.00;;;;;;5111871;28;20493;-67
2022/02/23 02:34:55;;;;;;;1.20;0.90;;;6.70;98.00;;;;;;5111018;28;20451;-67
2022/02/23 02:37:22;;;;;;;1.30;1.00;;;6.80;98.00;;;;;;5112063;28;20495;-67
2022/02/23 02:39:50;;;;;;;1.10;0.90;;;6.80;98.00;;;;;;5112225;28;20484;-67
2022/02/23 02:42:18;;;;;;;1.13;1.00;;;6.70;98.00;;;;;;5111884;28;20518;-68
2022/02/23 02:44:46;;;;;;;1.10;1.00;;;6.80;98.00;;;;;;5112227;28;20465;-68
2022/02/23 02:47:13;;;;;;;1.27;1.00;;;6.80;98.00;;;;;;5112123;28;20541;-67
2022/02/23 02:49:43;;;;;;;1.20;1.00;;;6.80;98.00;;;;;;5112378;28;20482;-67
2022/02/23 02:52:10;;;;;;;1.17;0.90;;;6.80;98.00;;;;;;5110376;28;20455;-68
2022/02/23 02:54:38;;;;;;;1.20;0.90;;;6.90;98.00;;;;;;5112152;28;20483;-67
2022/02/23 02:57:07;;;;;;;1.20;1.00;;;6.90;98.00;;;;;;5110454;28;20498;-67
2022/02/23 02:59:34;;;;;;;1.20;1.00;;;7.00;98.00;;;;;;5111944;28;20451;-67
2022/02/23 03:02:01;;;;;;;1.20;1.00;;;6.90;98.00;;;;;;5111705;28;20511;-67
2022/02/23 03:04:28;;;;;;;1.20;0.90;;;6.80;98.00;;;;;;5113866;28;20456;-68
2022/02/23 03:06:55;;;;;;;1.20;1.10;;;6.70;98.00;;;;;;5115734;28;20488;-67
2022/02/23 03:09:22;;;;;;;1.20;0.90;;;6.80;98.00;;;;;;5115890;28;20457;-67
2022/02/23 03:11:49;;;;;;;1.20;0.90;;;6.80;98.00;;;;;;5115553;28;20471;-68
2022/02/23 03:14:17;;;;;;;1.20;1.00;;;6.80;98.00;;;;;;5115767;28;20791;-67
2022/02/23 03:16:46;;;;;;;2.37;1.40;;;6.80;98.00;;;;;;5115435;28;20553;-67
2022/02/23 03:19:13;;;;;;;1.20;0.90;;;6.90;98.00;;;;;;5115491;28;20474;-67
2022/02/23 03:21:40;;;;;;;1.20;0.90;;;6.80;98.00;;;;;;5115422;28;20478;-67
2022/02/23 03:24:08;;;;;;;1.20;1.00;;;6.70;98.00;;;;;;5115444;28;20461;-67
2022/02/23 03:26:35;;;;;;;1.20;0.90;;;6.70;98.00;;;;;;5115059;28;20528;-68
2022/02/23 03:29:02;;;;;;;1.13;0.90;;;6.70;98.00;;;;;;5115572;28;20481;-67
2022/02/23 03:31:30;;;;;;;1.20;0.97;;;6.70;98.00;;;;;;5115069;28;20948;-67
2022/02/23 03:33:58;;;;;;;1.17;1.00;;;6.60;98.00;;;;;;5115502;28;20507;-67
2022/02/23 03:36:25;;;;;;;1.20;1.00;;;6.60;98.00;;;;;;5115398;28;20485;-67
2022/02/23 03:38:53;;;;;;;1.13;1.00;;;6.60;98.00;;;;;;5115418;28;20488;-67
2022/02/23 03:41:20;;;;;;;1.20;1.00;;;6.60;98.00;;;;;;5115342;28;20458;-68
2022/02/23 03:43:50;;;;;;;1.10;1.00;;;6.50;98.00;;;;;;5115259;28;21081;-67
2022/02/23 03:46:17;;;;;;;1.20;1.00;;;6.60;98.00;;;;;;5115283;28;20515;-67
2022/02/23 03:48:48;;;;;;;5.03;3.10;;;6.50;98.00;;;;;;5114994;28;20529;-67
2022/02/23 03:51:15;;;;;;;1.17;0.90;;;6.60;98.00;;;;;;5113643;28;20501;-67
2022/02/23 03:53:43;;;;;;;1.40;1.10;;;6.60;98.00;;;;;;5114865;28;20484;-67
2022/02/23 03:56:38;;;;;;;1.20;0.90;;;6.60;98.00;;;;;;5115108;28;20543;-67
2022/02/23 03:58:56;;;;;;;1.20;1.00;;;6.50;98.00;;;;;;5114640;28;20443;-68
2022/02/23 04:01:23;;;;;;;1.10;0.90;;;6.40;98.00;;;;;;5114717;28;20490;-67
2022/02/23 04:03:52;;;;;;;1.20;1.00;;;6.40;98.00;;;;;;5114479;28;20527;-67
2022/02/23 04:06:19;;;;;;;1.20;1.00;;;6.40;98.00;;;;;;5114729;28;20482;-67
2022/02/23 04:08:46;;;;;;;1.20;1.00;;;6.40;98.00;;;;;;5114619;28;20460;-67
2022/02/23 04:11:13;;;;;;;1.20;1.00;;;6.30;98.00;;;;;;5114595;28;20811;-67
2022/02/23 04:13:40;;;;;;;1.20;0.90;;;6.10;98.00;;;;;;5114500;28;20549;-67
2022/02/23 04:16:07;;;;;;;1.20;1.07;;;6.10;98.00;;;;;;5113397;28;20537;-67
2022/02/23 04:18:34;;;;;;;1.20;1.00;;;6.00;98.00;;;;;;5114469;28;20459;-67
2022/02/23 04:21:04;;;;;;;1.30;1.20;;;5.90;98.00;;;;;;5114534;28;20486;-68
2022/02/23 04:23:31;;;;;;;1.20;1.10;;;5.90;98.00;;;;;;5114477;28;20821;-67
2022/02/23 04:25:58;;;;;;;1.17;1.00;;;5.70;98.00;;;;;;5114144;28;20490;-67
2022/02/23 04:28:28;;;;;;;1.20;1.00;;;5.70;98.00;;;;;;5114380;28;21010;-67
2022/02/23 04:30:55;;;;;;;1.20;1.00;;;5.70;98.00;;;;;;5114547;28;20459;-67
2022/02/23 04:33:22;;;;;;;1.20;1.00;;;5.70;98.00;;;;;;5114463;28;20486;-67
2022/02/23 04:35:49;;;;;;;1.13;0.90;;;5.70;98.00;;;;;;5114246;28;20986;-67
2022/02/23 04:38:19;;;;;;;1.17;0.90;;;5.60;98.00;;;;;;5114158;28;20546;-67
2022/02/23 04:40:46;;;;;;;1.30;1.00;;;5.70;98.00;;;;;;5114023;28;20461;-67
2022/02/23 04:43:15;;;;;;;1.20;0.93;;;5.70;98.00;;;;;;5113726;28;20542;-67
2022/02/23 04:45:42;;;;;;;1.20;1.00;;;5.60;98.00;;;;;;5113131;28;20500;-67
2022/02/23 04:48:09;;;;;;;1.10;0.90;;;5.50;98.00;;;;;;5113027;28;20872;-67
2022/02/23 04:50:36;;;;;;;1.20;1.00;;;5.50;98.00;;;;;;5113180;28;20505;-67
2022/02/23 04:53:03;;;;;;;1.10;0.90;;;5.40;98.00;;;;;;5113786;28;21020;-67
2022/02/23 04:55:33;;;;;;;1.13;0.90;;;5.50;98.00;;;;;;5113769;28;20988;-67
2022/02/23 04:58:07;;;;;;;1.20;1.00;;;5.50;98.00;;;;;;5113592;28;20547;-67
2022/02/23 05:00:38;;;;;;;1.10;1.00;;;5.50;98.00;;;;;;5113637;28;20465;-67
2022/02/23 05:03:05;;;;;;;1.23;1.07;;;5.50;98.00;;;;;;5113574;28;20731;-67
2022/02/23 05:05:33;;;;;;;1.20;0.90;;;5.60;98.00;;;;;;5113393;28;20476;-67
2022/02/23 05:08:00;;;;;;;1.10;0.90;;;5.60;98.00;;;;;;5113458;28;20964;-68
2022/02/23 05:10:30;;;;;;;1.20;1.00;;;5.60;98.00;;;;;;5113535;28;20458;-67
2022/02/23 05:12:58;;;;;;;1.10;1.00;;;5.50;98.00;;;;;;5113350;28;20486;-67
2022/02/23 05:15:25;;;;;;;1.20;1.00;;;5.40;98.00;;;;;;5113214;28;20491;-67
2022/02/23 05:17:54;;;;;;;1.60;1.53;;;5.30;98.00;;;;;;5113332;28;20479;-68
2022/02/23 05:20:21;;;;;;;1.20;1.00;;;5.30;98.00;;;;;;5113390;28;20457;-67
2022/02/23 05:22:48;;;;;;;1.10;1.00;;;5.20;98.00;;;;;;5113230;28;20512;-68
2022/02/23 05:25:16;;;;;;;1.20;1.00;;;5.30;98.00;;;;;;5113542;28;20921;-67
2022/02/23 05:27:44;;;;;;;1.20;0.90;;;5.30;98.00;;;;;;5112971;28;20460;-67
2022/02/23 05:30:13;;;;;;;1.60;1.30;;;5.40;98.00;;;;;;5113032;28;20539;-67
2022/02/23 05:32:42;;;;;;;1.20;1.10;;;5.20;98.00;;;;;;5113099;27;20487;-67
2022/02/23 05:35:10;;;;;;;1.13;0.90;;;5.10;98.00;;;;;;5112825;28;20522;-67
2022/02/23 05:37:38;;;;;;;1.20;1.10;;;5.20;98.00;;;;;;5112705;28;20562;-67
2022/02/23 05:40:07;;;;;;;1.20;0.90;;;5.20;98.00;;;;;;5111275;28;21037;-67
2022/02/23 05:42:35;;;;;;;1.20;0.90;;;5.20;98.00;;;;;;5112317;28;20577;-67
2022/02/23 05:45:02;;;;;;;1.73;1.63;;;5.00;98.00;;;;;;5112675;28;20483;-67
2022/02/23 05:47:30;;;;;;;1.20;0.90;;;4.90;98.00;;;;;;5112449;28;20848;-67
2022/02/23 05:49:57;;;;;;;1.20;1.10;;;4.90;98.00;;;;;;5112684;28;20463;-67
2022/02/23 05:52:24;;;;;;;1.20;1.00;;;4.90;98.00;;;;;;5112688;28;20481;-67
2022/02/23 05:54:51;;;;;;;1.20;1.10;;;4.90;98.00;;;;;;5112613;28;20978;-67
2022/02/23 05:57:19;;;;;;;1.20;1.00;;;5.10;98.00;;;;;;5112511;28;20458;-67
2022/02/23 05:59:46;;;;;;;1.20;1.00;;;4.90;98.00;;;;;;5112476;28;20459;-67
2022/02/23 06:02:13;;;;;;;2.80;1.13;;;4.90;98.00;;;;;;5112610;28;20499;-67
2022/02/23 06:04:42;;;;;;;1.20;1.03;;;4.70;98.00;;;;;;5112468;28;21052;-67
2022/02/23 06:07:09;;;;;;;1.20;0.90;;;4.60;98.00;;;;;;5112562;28;20461;-67
2022/02/23 06:09:36;;;;;;;1.20;1.00;;;4.60;98.00;;;;;;5112510;28;20547;-67
2022/02/23 06:12:04;;;;;;;1.20;1.00;;;4.60;98.00;;;;;;5112697;28;20456;-67
2022/02/23 06:14:31;;;;;;;1.30;1.10;;;4.50;98.00;;;;;;5112507;28;20951;-67
2022/02/23 06:16:59;;;;;;;1.20;1.10;;;4.60;98.00;;;;;;5112570;28;20464;-67
2022/02/23 06:19:26;;;;;;;1.20;1.10;;;4.60;98.00;;;;;;5112297;28;20456;-67
2022/02/23 06:21:55;;;;;;;1.20;0.90;;;4.40;98.00;;;;;;5112176;28;20545;-67
2022/02/23 06:24:22;;;;;;;1.20;0.90;;;4.40;98.00;;;;;;5112133;28;20589;-67
2022/02/23 06:26:49;;;;;;;1.43;1.07;;;4.40;98.00;;;;;;5111989;28;20460;-67
2022/02/23 06:29:18;;;;;;;1.20;0.90;;;4.40;98.00;;;;;;5112075;28;20519;-67
2022/02/23 06:32:04;;;;;;;1.10;1.00;;;4.40;98.00;;;;;;5112040;28;20459;-67
2022/02/23 06:34:31;;;;;;;1.20;0.90;;;4.40;98.00;;;;;;5111946;28;20483;-68
2022/02/23 06:37:02;;;;;;;1.27;1.10;;;4.40;98.00;;;;;;5111952;28;20506;-68
2022/02/23 06:39:29;;;;;;;1.20;1.00;;;4.40;98.00;;;;;;5114237;28;20452;-68
2022/02/23 06:41:56;;;;;;;1.20;1.00;;;4.30;98.00;;;;;;5116306;28;20460;-68
2022/02/23 06:44:23;;;;;;;1.70;1.43;;;4.40;98.00;;;;;;5116325;28;20575;-67
2022/02/23 06:46:50;;;;;;;1.30;1.10;;;4.50;98.00;;;;;;5116044;28;20553;-68
2022/02/23 06:49:17;;;;;;;1.20;1.00;;;4.50;98.00;;;;;;5116372;28;20460;-67
2022/02/23 06:51:47;;;;;;;1.20;1.10;;;4.60;98.00;;;;;;5116141;28;20455;-67
2022/02/23 06:54:16;;;;;;;1.10;0.93;;;4.70;98.00;;;;;;5116212;28;20483;-68
2022/02/23 06:56:43;;;;;;;1.20;1.20;;;4.80;98.00;;;;;;5116065;28;20478;-68
2022/02/23 06:59:10;;;;;;;1.67;1.20;;;4.90;98.00;;;;;;5116259;28;20506;-68
2022/02/23 07:01:38;;;;;;;1.37;1.27;;;5.10;98.00;;;;;;5116001;28;20488;-68
2022/02/23 07:04:06;;;;;;;1.20;1.00;;;5.30;98.00;;;;;;5116045;28;20520;-68
2022/02/23 07:06:34;;;;;;;1.20;1.00;;;5.30;98.00;;;;;;5116105;28;20459;-67
2022/02/23 07:09:01;;;;;;;1.20;1.00;;;5.40;98.00;;;;;;5116224;28;20461;-68
2022/02/23 07:11:30;;;;;;;1.20;1.00;;;5.30;98.00;;;;;;5115889;28;20530;-67
2022/02/23 07:13:57;;;;;;;1.17;1.00;;;5.30;98.00;;;;;;5115650;28;20510;-67
2022/02/23 07:16:24;;;;;;;1.30;1.13;;;5.30;98.00;;;;;;5115790;28;20515;-67
2022/02/23 07:18:53;;;;;;;2.40;1.13;;;5.40;98.00;;;;;;5115392;28;20462;-67
2022/02/23 07:21:21;;;;;;;1.60;1.50;;;5.50;98.00;;;;;;5115656;28;20484;-68
2022/02/23 07:23:48;;;;;;;1.10;1.10;;;5.70;98.00;;;;;;5115200;28;20523;-68
2022/02/23 07:26:18;;;;;;;1.10;1.10;;;5.80;98.00;;;;;;5115539;28;20965;-68
2022/02/23 07:28:47;;;;;;;1.27;1.20;;;5.70;98.00;;;;;;5115546;28;20537;-67
2022/02/23 07:31:17;;;;;;;2.40;1.73;;;5.70;98.00;;;;;;5115387;28;20550;-68
2022/02/23 07:33:45;;;;;;;1.77;1.40;;;5.70;98.00;;;;;;5115051;28;20587;-68
2022/02/23 07:36:12;;;;;;;1.30;1.20;;;5.60;98.00;;;;;;5115305;28;20542;-68
2022/02/23 07:38:40;;;;;;;6.33;3.07;;;5.50;98.00;;;;;;5115233;28;21049;-68
2022/02/23 07:41:08;;;;;;;1.50;1.20;;;5.50;98.00;;;;;;5115319;28;20463;-68
2022/02/23 07:43:36;;;;;;;2.80;1.93;;;5.40;98.00;;;;;;5115091;28;20559;-68
2022/02/23 07:46:05;;;;;;;1.50;1.30;;;5.30;98.00;;;;;;5115089;28;20464;-68
2022/02/23 07:48:34;;;;;;;1.10;1.00;;;5.30;98.00;;;;;;5115246;28;20462;-68
2022/02/23 07:51:03;;;;;;;1.30;1.10;;;5.30;98.00;;;;;;5113894;28;20493;-68
2022/02/23 07:53:33;;;;;;;2.03;1.60;;;5.40;98.00;;;;;;5114966;28;20447;-68
2022/02/23 07:56:00;;;;;;;1.10;1.00;;;5.50;98.00;;;;;;5114907;28;20459;-67
2022/02/23 07:58:27;;;;;;;1.87;1.20;;;5.50;98.00;;;;;;5115295;28;20502;-67
2022/02/23 08:00:55;;;;;;;1.30;1.10;;;5.60;98.00;;;;;;5101772;28;20550;-70
2022/02/23 08:03:26;;;;;;;1.40;1.10;;;5.80;98.00;;;;;;5096816;28;20492;-70
2022/02/23 08:05:54;;;;;;;1.47;1.07;;;5.90;98.00;;;;;;5110431;28;20457;-69
2022/02/23 08:08:22;;;;;;;1.37;1.37;;;5.80;98.00;;;;;;5098657;28;20492;-70
2022/02/23 08:10:50;;;;;;;2.77;2.00;;;5.80;98.00;;;;;;5093310;28;20456;-71
2022/02/23 08:13:17;;;;;;;1.10;1.00;;;5.80;98.00;;;;;;5102801;28;20449;-71
2022/02/23 08:21:15;;;;;;;1.10;1.00;;;7.90;98.00;;;;;;5102175;28;20792;-69
2022/02/23 08:23:45;;;;;;;1.40;1.20;;;8.70;98.00;;;;;;5101824;28;20481;-69
2022/02/23 08:26:20;;;;;;;1.20;1.10;;;8.70;98.00;;;;;;5110096;28;20449;-69
2022/02/23 08:28:47;;;;;;;3.53;1.50;;;8.60;98.00;;;;;;5109709;28;20553;-69
2022/02/23 08:31:14;;;;;;;1.40;1.30;;;8.40;98.00;;;;;;5109586;28;20537;-70
2022/02/23 08:33:43;;;;;;;2.13;1.97;;;8.30;98.00;;;;;;5092955;28;20487;-70
2022/02/23 08:36:10;;;;;;;1.30;1.27;;;8.10;98.00;;;;;;5101707;28;20880;-69
2022/02/23 08:38:38;;;;;;;2.23;1.30;;;8.00;98.00;;;;;;5109703;28;20966;-68
2022/02/23 08:41:07;;;;;;;1.50;1.30;;;7.90;98.00;;;;;;5093194;28;20466;-68
2022/02/23 08:43:34;;;;;;;1.20;1.00;;;7.80;98.00;;;;;;5100981;28;20564;-70
2022/02/23 08:46:01;;;;;;;2.13;1.33;;;7.60;98.00;;;;;;5101564;28;20541;-70
2022/02/23 08:48:28;;;;;;;1.20;1.00;;;7.40;98.00;;;;;;5091771;28;20511;-70
2022/02/23 08:50:57;;;;;;;1.20;0.97;;;7.30;98.00;;;;;;5103778;28;20486;-70
2022/02/23 08:53:24;;;;;;;1.20;1.10;;;7.40;98.00;;;;;;5090882;28;20444;-70
2022/02/23 08:55:51;;;;;;;1.20;1.13;;;7.40;98.00;;;;;;5101749;28;20463;-70
2022/02/23 08:58:19;;;;;;;1.37;1.17;;;7.60;98.00;;;;;;5100337;28;21013;-70
2022/02/23 09:00:48;;;;;;;1.20;1.20;;;7.90;98.00;;;;;;5109647;27;20539;-69
2022/02/23 09:03:18;;;;;;;2.50;2.33;;;8.10;98.00;;;;;;5100300;28;20458;-69
2022/02/23 09:05:45;;;;;;;1.57;1.50;;;8.30;98.00;;;;;;5100661;28;20518;-69
2022/02/23 09:08:13;;;;;;;1.20;0.90;;;8.40;98.00;;;;;;5092461;28;20546;-69
2022/02/23 09:10:40;;;;;;;1.20;0.90;;;8.50;98.00;;;;;;5091640;28;20477;-70
2022/02/23 09:13:08;;;;;;;2.03;1.53;;;8.50;98.00;;;;;;5109148;28;20684;-69
2022/02/23 09:15:35;;;;;;;1.40;1.17;;;8.70;98.00;;;;;;5092102;28;20577;-68
2022/02/23 09:18:03;;;;;;;1.53;1.50;;;8.70;98.00;;;;;;5101662;28;20463;-70
2022/02/23 09:20:31;;;;;;;1.40;1.23;;;8.90;98.00;;;;;;5108735;28;20535;-70
2022/02/23 09:22:58;;;;;;;1.20;1.00;;;9.00;98.00;;;;;;5099863;28;20462;-69
2022/02/23 09:25:27;;;;;;;1.30;1.17;;;9.10;98.00;;;;;;5108918;28;20494;-72
2022/02/23 09:27:56;;;;;;;1.20;1.00;;;9.20;98.00;;;;;;5098336;28;20508;-68
2022/02/23 09:30:23;;;;;;;1.80;1.47;;;9.40;98.00;;;;;;5100860;28;20539;-68
2022/02/23 09:32:50;;;;;;;1.20;1.07;;;9.50;98.00;;;;;;5107047;28;20500;-70
2022/02/23 09:35:19;;;;;;;1.20;1.00;;;9.60;98.00;;;;;;5099753;28;20454;-69
2022/02/23 09:37:47;;;;;;;1.20;0.97;;;9.50;98.00;;;;;;5092076;28;20455;-69
2022/02/23 09:40:15;;;;;;;1.30;1.17;;;9.50;98.00;;;;;;5101233;28;20459;-69
2022/02/23 09:42:45;;;;;;;1.20;1.10;;;9.50;98.00;;;;;;5106273;28;20472;-69
2022/02/23 09:45:14;;;;;;;1.20;1.00;;;9.50;98.00;;;;;;5101206;28;20589;-69
2022/02/23 09:47:42;;;;;;;1.20;1.10;;;9.70;98.00;;;;;;5091989;28;20454;-70
2022/02/23 09:50:12;;;;;;;1.20;1.00;;;9.80;98.00;;;;;;5105572;28;20563;-70
2022/02/23 09:52:39;;;;;;;3.30;2.20;;;10.00;98.00;;;;;;5091035;28;20507;-69
2022/02/23 09:55:07;;;;;;;1.30;1.00;;;10.10;98.00;;;;;;5091190;28;20521;-69
2022/02/23 09:57:34;;;;;;;1.20;0.90;;;10.00;98.00;;;;;;5097168;28;20485;-69
2022/02/23 10:00:05;;;;;;;1.20;1.10;;;10.10;98.00;;;;;;5099150;28;20554;-70
2022/02/23 10:02:35;;;;;;;1.20;1.00;;;10.20;98.00;;;;;;5107799;28;20447;-70
2022/02/23 10:05:03;;;;;;;1.20;1.00;;;10.20;98.00;;;;;;5099800;28;20578;-70
2022/02/23 10:07:31;;;;;;;1.30;1.20;;;10.40;98.00;;;;;;5091082;28;20972;-70
2022/02/23 10:10:00;;;;;;;1.20;0.93;;;10.50;98.00;;;;;;5108339;28;20929;-69
2022/02/23 10:12:29;;;;;;;1.37;1.17;;;10.70;98.00;;;;;;5099631;28;20542;-70
2022/02/23 10:15:11;;;;;;;1.77;1.20;;;10.90;98.00;;;;;;5094286;28;20491;-69
2022/02/23 10:17:40;;;;;;;1.20;1.00;;;11.10;98.00;;;;;;5107258;28;20458;-69
2022/02/23 10:20:21;;;;;;;1.20;1.00;;;11.20;98.00;;;;;;5091747;28;20821;-69
2022/02/23 10:22:49;;;;;;;1.40;1.10;;;11.40;98.00;;;;;;5101448;28;20464;-69
2022/02/23 10:25:22;;;;;;;1.37;1.20;;;11.70;98.00;;;;;;5094944;28;20505;-69
2022/02/23 10:27:50;;;;;;;1.30;1.10;;;11.90;98.00;;;;;;5102577;28;20463;-68
2022/02/23 10:30:29;;;;;;;1.43;0.97;;;12.00;98.00;;;;;;5107598;28;20446;-71
2022/02/23 10:32:57;;;;;;;1.30;1.20;;;12.20;98.00;;;;;;5111795;28;20976;-69
2022/02/23 10:35:28;;;;;;;1.20;1.10;;;12.20;98.00;;;;;;5112202;28;20452;-69
2022/02/23 10:37:55;;;;;;;1.20;1.00;;;12.30;98.00;;;;;;5111074;28;20458;-69
2022/02/23 10:40:25;;;;;;;1.20;1.00;;;12.30;98.00;;;;;;5112201;28;21176;-69
2022/02/23 10:42:52;;;;;;;3.63;1.97;;;12.30;98.00;;;;;;5110998;28;20545;-69
2022/02/23 10:45:19;;;;;;;1.20;1.07;;;12.40;98.00;;;;;;5111827;28;20570;-69
2022/02/23 10:47:48;;;;;;;1.90;1.73;;;12.40;98.00;;;;;;5112022;28;20503;-69
2022/02/23 10:50:20;;;;;;;1.30;1.00;;;12.50;98.00;;;;;;5111766;28;20455;-69
2022/02/23 10:52:55;;;;;;;1.60;1.00;;;12.50;98.00;;;;;;5111743;28;20467;-69
2022/02/23 10:55:23;;;;;;;2.80;1.27;;;12.60;98.00;;;;;;5111595;28;20958;-70
2022/02/23 10:57:56;;;;;;;1.30;1.20;;;12.70;98.00;;;;;;5111801;28;20477;-69
2022/02/23 11:00:31;;;;;;;1.40;1.20;;;12.50;97.80;;;;;;5111658;28;20450;-69
2022/02/23 11:03:01;;;;;;;1.30;1.00;;;12.40;97.10;;;;;;5111575;28;20455;-70
2022/02/23 11:05:30;;;;;;;1.20;1.00;;;12.40;98.00;;;;;;5111611;28;20486;-69
2022/02/23 11:07:59;;;;;;;1.30;1.17;;;12.70;98.00;;;;;;5111722;28;20453;-70
2022/02/23 11:10:27;;;;;;;1.20;1.00;;;13.00;98.00;;;;;;5111744;28;20516;-70
2022/02/23 11:12:56;;;;;;;1.20;1.07;;;13.10;98.00;;;;;;5111521;28;21011;-70
2022/02/23 11:15:26;;;;;;;1.20;1.00;;;13.20;98.00;;;;;;5111974;28;20537;-69
2022/02/23 11:17:54;;;;;;;1.20;1.00;;;13.60;97.20;;;;;;5111903;28;20458;-69
2022/02/23 11:20:27;;;;;;;1.20;1.07;;;14.00;97.30;;;;;;5111938;28;20459;-70
2022/02/23 11:22:58;;;;;;;1.20;1.00;;;14.20;98.00;;;;;;5111902;28;20453;-69
2022/02/23 11:25:25;;;;;;;2.00;1.50;;;14.50;96.60;;;;;;5113800;28;20498;-70
2022/02/23 11:27:59;;;;;;;1.40;1.30;;;14.80;95.10;;;;;;5115729;28;20506;-69
2022/02/23 11:30:29;;;;;;;1.20;1.03;;;14.80;94.90;;;;;;5115814;28;20458;-69
2022/02/23 11:32:56;;;;;;;1.27;1.13;;;15.10;91.50;;;;;;5115576;28;20540;-69
2022/02/23 11:35:40;;;;;;;1.30;1.10;;;15.10;91.80;;;;;;5114260;28;20817;-70
2022/02/23 11:38:08;;;;;;;2.03;1.20;;;15.40;91.60;;;;;;5115353;28;20455;-70
2022/02/23 11:40:50;;;;;;;1.20;1.00;;;15.80;90.30;;;;;;5115131;28;20511;-69
2022/02/23 11:43:28;;;;;;;1.20;1.10;;;16.00;90.20;;;;;;5113000;28;20473;-69
2022/02/23 11:49:17;;;;;;;1.30;1.30;;;15.00;90.60;;;;;;5115128;28;20456;-70
2022/02/23 11:58:02;;;;;;;1.20;1.00;;;15.50;90.50;;;;;;5114786;28;20515;-69
2022/02/23 12:00:57;;;;;;;1.20;1.00;;;15.90;88.30;;;;;;5113699;28;20455;-69
2022/02/23 12:03:35;;;;;;;2.07;1.30;;;16.00;89.40;;;;;;5107644;27;20457;-69
2022/02/23 12:06:05;;;;;;;4.27;1.50;;;16.30;84.60;;;;;;5114789;28;20481;-69
2022/02/23 12:08:47;;;;;;;1.20;1.10;;;16.50;86.10;;;;;;5114706;28;20529;-69
2022/02/23 12:11:42;;;;;;;1.20;1.00;;;16.90;85.70;;;;;;5114646;28;20465;-69
2022/02/23 12:14:13;;;;;;;2.17;1.43;;;17.20;84.80;;;;;;5114702;28;21053;-69
2022/02/23 12:16:49;;;;;;;1.60;1.27;;;17.50;81.20;;;;;;5114757;28;20445;-69
2022/02/23 12:19:18;;;;;;;1.20;1.00;;;17.50;81.50;;;;;;5114730;28;20821;-69
2022/02/23 12:21:46;;;;;;;1.20;1.10;;;17.60;80.70;;;;;;5114920;28;20483;-69
2022/02/23 12:24:16;;;;;;;10.50;1.43;;;17.70;79.90;;;;;;5114504;28;20929;-69
2022/02/23 12:26:44;;;;;;;3.40;2.07;;;17.80;80.70;;;;;;5114530;28;20506;-70
2022/02/23 12:29:14;;;;;;;2.07;1.23;;;17.90;81.20;;;;;;5114153;28;20521;-70
2022/02/23 12:31:45;;;;;;;1.20;1.00;;;18.10;80.40;;;;;;5114395;28;20535;-70
2022/02/23 12:34:17;;;;;;;1.20;1.10;;;18.00;79.40;;;;;;5114161;28;20462;-70
2022/02/23 12:36:48;;;;;;;1.67;1.40;;;18.30;79.30;;;;;;5113263;28;20455;-70
2022/02/23 12:39:18;;;;;;;1.20;1.10;;;18.40;80.00;;;;;;5113854;28;20458;-70
2022/02/23 12:41:48;;;;;;;1.20;1.10;;;18.50;78.70;;;;;;5114222;28;20594;-70
2022/02/23 12:44:17;;;;;;;1.20;1.07;;;18.50;78.00;;;;;;5113893;28;20451;-70
2022/02/23 12:46:51;;;;;;;3.63;1.33;;;18.60;77.90;;;;;;5114028;28;20487;-70
2022/02/23 12:49:19;;;;;;;1.20;1.00;;;18.90;76.80;;;;;;5114109;28;20493;-70
2022/02/23 12:51:49;;;;;;;1.20;1.00;;;19.10;76.10;;;;;;5113938;28;20447;-70
2022/02/23 12:54:19;;;;;;;1.83;1.20;;;19.30;76.70;;;;;;5113839;28;20450;-69
2022/02/23 12:56:48;;;;;;;1.20;1.10;;;19.20;76.40;;;;;;5113703;28;20467;-69
2022/02/23 12:59:17;;;;;;;2.90;1.40;;;19.00;75.20;;;;;;5113800;28;20459;-70
2022/02/23 13:01:46;;;;;;;1.80;1.10;;;19.30;77.00;;;;;;5112561;28;20447;-69
2022/02/23 13:04:15;;;;;;;1.30;1.20;;;19.50;76.90;;;;;;5113742;28;20455;-69
2022/02/23 13:06:45;;;;;;;1.23;1.17;;;19.50;76.40;;;;;;5113557;28;20491;-69
2022/02/23 13:09:14;;;;;;;1.20;1.10;;;19.60;74.70;;;;;;5113714;28;20455;-69
2022/02/23 13:11:44;;;;;;;1.20;1.10;;;19.70;74.30;;;;;;5113616;28;20863;-70
2022/02/23 13:14:18;;;;;;;1.20;1.20;;;19.50;74.80;;;;;;5113843;28;20853;-69
2022/02/23 13:16:48;;;;;;;1.20;1.10;;;19.40;73.80;;;;;;5113573;28;20542;-69
2022/02/23 13:19:16;;;;;;;1.20;1.10;;;19.40;74.00;;;;;;5113563;28;20502;-69